createdAt,value
2022-12-24T00:02:44.353Z,5.35
2022-12-24T00:05:47.116Z,5.41
2022-12-24T00:08:51.113Z,5.40
2022-12-24T00:11:53.757Z,5.33
2022-12-24T00:14:56.045Z,5.25
2022-12-24T00:17:58.709Z,5.15
2022-12-24T00:21:03.935Z,5.16
2022-12-24T00:24:06.847Z,5.11
2022-12-24T00:27:09.172Z,5.15
2022-12-24T00:30:12.026Z,5.06
2022-12-24T00:33:17.120Z,5.13
2022-12-24T00:36:23.653Z,5.15
2022-12-24T00:39:26.005Z,5.16
2022-12-24T00:42:28.618Z,5.10
2022-12-24T00:45:30.940Z,5.19
2022-12-24T00:48:33.592Z,5.25
2022-12-24T00:51:36.399Z,5.29
2022-12-24T00:54:39.112Z,5.28
2022-12-24T00:57:41.388Z,5.26
2022-12-24T01:00:43.968Z,5.28
2022-12-24T01:03:47.711Z,5.27
2022-12-24T01:06:50.344Z,5.21
2022-12-24T01:09:52.617Z,5.30
2022-12-24T01:12:55.260Z,5.27
2022-12-24T01:15:57.686Z,5.29
2022-12-24T01:19:00.349Z,5.38
2022-12-24T01:22:02.693Z,5.33
2022-12-24T01:25:05.803Z,5.43
2022-12-24T01:28:08.121Z,5.57
2022-12-24T01:31:16.232Z,5.63
2022-12-24T01:34:18.615Z,5.66
2022-12-24T01:37:21.192Z,5.59
2022-12-24T01:40:45.500Z,5.64
2022-12-24T01:43:48.248Z,5.66
2022-12-24T01:46:55.591Z,5.63
2022-12-24T01:50:01.711Z,5.62
2022-12-24T01:53:06.572Z,5.53
2022-12-24T01:56:11.764Z,5.54
2022-12-24T01:59:18.696Z,5.57
2022-12-24T02:02:22.341Z,5.65
2022-12-24T02:05:34.305Z,5.61
2022-12-24T02:08:42.659Z,5.63
2022-12-24T02:11:46.927Z,5.59
2022-12-24T02:14:49.453Z,5.56
2022-12-24T02:18:01.132Z,5.47
2022-12-24T02:21:21.868Z,5.48
2022-12-24T02:24:30.349Z,5.51
2022-12-24T02:27:54.606Z,5.52
2022-12-24T02:31:06.007Z,5.51
2022-12-24T02:34:08.301Z,5.51
2022-12-24T02:37:17.542Z,5.57
2022-12-24T02:40:27.901Z,5.63
2022-12-24T02:43:35.941Z,5.68
2022-12-24T02:46:38.611Z,5.82
2022-12-24T02:49:45.925Z,5.91
2022-12-24T02:52:48.870Z,5.99
2022-12-24T02:56:12.968Z,5.99
2022-12-24T02:59:24.663Z,6.00
2022-12-24T03:02:40.394Z,6.02
2022-12-24T03:05:49.827Z,6.01
2022-12-24T03:09:02.975Z,5.96
2022-12-24T03:12:13.486Z,5.96
2022-12-24T03:15:19.068Z,6.05
2022-12-24T03:18:24.621Z,6.04
2022-12-24T03:21:47.499Z,6.05
2022-12-24T03:24:49.795Z,6.01
2022-12-24T03:27:53.345Z,6.01
2022-12-24T03:30:56.110Z,6.03
2022-12-24T03:33:58.753Z,6.05
2022-12-24T03:37:01.079Z,6.09
2022-12-24T03:40:05.555Z,6.06
2022-12-24T03:43:07.846Z,6.13
2022-12-24T03:46:10.533Z,6.16
2022-12-24T03:49:12.852Z,6.16
2022-12-24T03:52:15.470Z,6.19
2022-12-24T03:55:17.800Z,6.15
2022-12-24T03:58:20.389Z,6.09
2022-12-24T04:01:23.044Z,6.12
2022-12-24T04:04:25.838Z,6.12
2022-12-24T04:07:28.274Z,6.10
2022-12-24T04:10:30.874Z,6.17
2022-12-24T04:13:33.243Z,6.17
2022-12-24T04:16:35.850Z,6.17
2022-12-24T04:19:38.223Z,6.13
2022-12-24T04:22:42.099Z,6.19
2022-12-24T04:25:44.469Z,6.21
2022-12-24T04:28:47.047Z,6.17
2022-12-24T04:31:49.369Z,6.18
2022-12-24T04:34:52.045Z,6.26
2022-12-24T04:37:54.335Z,6.22
2022-12-24T04:41:19.178Z,6.31
2022-12-24T04:44:25.294Z,6.26
2022-12-24T04:47:27.895Z,6.38
2022-12-24T04:50:30.211Z,6.39
2022-12-24T04:53:33.385Z,6.42
2022-12-24T04:56:35.751Z,6.41
2022-12-24T04:59:38.321Z,6.51
2022-12-24T05:02:40.926Z,6.63
2022-12-24T05:05:43.815Z,6.59
2022-12-24T05:08:46.378Z,6.66
2022-12-24T05:11:49.011Z,6.74
2022-12-24T05:14:51.410Z,6.69
2022-12-24T05:17:54.085Z,6.68
2022-12-24T05:20:56.367Z,6.66
2022-12-24T05:24:17.810Z,6.70
2022-12-24T05:27:20.265Z,6.65
2022-12-24T05:30:22.854Z,6.73
2022-12-24T05:33:25.146Z,6.73
2022-12-24T05:36:27.889Z,6.71
2022-12-24T05:39:30.281Z,6.79
2022-12-24T05:42:32.865Z,6.82
2022-12-24T05:45:35.190Z,6.84
2022-12-24T05:48:37.916Z,6.76
2022-12-24T05:51:41.211Z,6.79
2022-12-24T05:54:43.863Z,6.71
2022-12-24T05:57:46.176Z,6.73
2022-12-24T06:00:48.733Z,6.69
2022-12-24T06:03:52.885Z,6.74
2022-12-24T06:06:55.361Z,6.73
2022-12-24T06:09:58.011Z,6.71
2022-12-24T06:13:00.340Z,6.69
2022-12-24T06:16:06.074Z,6.73
2022-12-24T06:19:08.453Z,6.72
2022-12-24T06:22:11.025Z,6.68
2022-12-24T06:25:13.401Z,6.64
2022-12-24T06:28:16.755Z,6.64
2022-12-24T06:31:21.552Z,6.89
2022-12-24T06:34:24.150Z,6.88
2022-12-24T06:37:26.436Z,7.11
2022-12-24T06:40:29.160Z,7.27
2022-12-24T06:43:31.450Z,7.31
2022-12-24T06:46:34.139Z,7.42
2022-12-24T06:49:36.573Z,7.52
2022-12-24T06:52:39.303Z,7.72
2022-12-24T06:55:41.666Z,7.88
2022-12-24T06:58:44.565Z,8.13
2022-12-24T07:01:47.068Z,8.26
2022-12-24T07:04:49.867Z,8.20
2022-12-24T07:07:52.185Z,8.20
2022-12-24T07:10:54.923Z,8.44
2022-12-24T07:13:57.274Z,8.42
2022-12-24T07:17:00.018Z,8.56
2022-12-24T07:20:02.776Z,8.62
2022-12-24T07:23:05.404Z,8.36
2022-12-24T07:26:08.473Z,8.14
2022-12-24T07:29:11.181Z,7.99
2022-12-24T07:32:13.550Z,7.92
2022-12-24T07:35:16.225Z,7.82
2022-12-24T07:38:18.521Z,7.78
2022-12-24T07:41:21.250Z,7.72
2022-12-24T07:44:23.616Z,7.65
2022-12-24T07:47:26.327Z,7.69
2022-12-24T07:50:28.761Z,7.60
2022-12-24T07:53:31.920Z,7.56
2022-12-24T07:56:34.574Z,7.66
2022-12-24T07:59:38.908Z,7.73
2022-12-24T08:02:41.445Z,7.91
2022-12-24T08:05:44.758Z,7.82
2022-12-24T08:08:47.138Z,7.85
2022-12-24T08:11:52.399Z,7.88
2022-12-24T08:14:55.924Z,7.94
2022-12-24T08:17:58.725Z,7.98
2022-12-24T08:21:01.078Z,7.92
2022-12-24T08:24:04.087Z,7.97
2022-12-24T08:27:06.488Z,8.04
2022-12-24T08:30:10.049Z,8.06
2022-12-24T08:33:12.426Z,8.10
2022-12-24T08:36:15.148Z,8.10
2022-12-24T08:39:17.427Z,8.07
2022-12-24T08:42:20.212Z,8.06
2022-12-24T08:45:22.598Z,8.11
2022-12-24T08:48:25.217Z,8.13
2022-12-24T08:51:27.550Z,8.14
2022-12-24T08:54:30.362Z,8.23
2022-12-24T08:57:36.121Z,8.26
2022-12-24T09:00:38.762Z,8.28
2022-12-24T09:03:41.561Z,8.30
2022-12-24T09:06:44.402Z,8.41
2022-12-24T09:09:47.156Z,8.44
2022-12-24T09:12:51.204Z,8.57
2022-12-24T09:15:55.181Z,8.56
2022-12-24T09:18:58.911Z,8.60
2022-12-24T09:22:01.335Z,8.67
2022-12-24T09:25:06.328Z,8.78
2022-12-24T09:28:09.033Z,8.76
2022-12-24T09:31:12.757Z,8.93
2022-12-24T09:34:15.238Z,9.12
2022-12-24T09:37:18.260Z,9.08
2022-12-24T09:40:29.214Z,9.18
2022-12-24T09:43:34.219Z,9.23
2022-12-24T09:46:42.148Z,9.25
2022-12-24T09:49:50.437Z,9.32
2022-12-24T09:52:54.317Z,9.47
2022-12-24T09:55:59.927Z,9.56
2022-12-24T09:59:05.346Z,9.70
2022-12-24T10:02:19.306Z,9.85
2022-12-24T10:05:39.072Z,10.02
2022-12-24T10:09:09.072Z,10.22
2022-12-24T10:12:26.871Z,10.34
2022-12-24T10:15:35.215Z,10.54
2022-12-24T10:19:01.644Z,10.64
2022-12-24T10:22:22.493Z,10.63
2022-12-24T10:25:40.804Z,10.80
2022-12-24T10:28:43.063Z,10.82
2022-12-24T10:32:27.640Z,11.05
2022-12-24T10:35:36.046Z,11.12
2022-12-24T10:38:38.650Z,11.16
2022-12-24T10:41:41.124Z,11.17
2022-12-24T10:44:48.067Z,11.34
2022-12-24T10:47:55.828Z,11.45
2022-12-24T10:51:03.823Z,11.41
2022-12-24T10:54:11.584Z,11.32
2022-12-24T10:57:26.485Z,11.30
2022-12-24T11:00:35.527Z,11.36
2022-12-24T11:03:39.913Z,11.39
2022-12-24T11:07:04.596Z,11.48
2022-12-24T11:10:08.702Z,11.46
2022-12-24T11:13:38.385Z,11.43
2022-12-24T11:16:56.480Z,11.54
2022-12-24T11:20:02.487Z,11.46
2022-12-24T11:23:05.871Z,11.51
2022-12-24T11:26:09.264Z,11.63
2022-12-24T11:29:24.281Z,11.66
2022-12-24T11:32:26.635Z,11.70
2022-12-24T11:35:31.781Z,11.73
2022-12-24T11:38:35.840Z,11.84
2022-12-24T11:41:39.719Z,11.75
2022-12-24T11:44:49.552Z,11.73
2022-12-24T11:47:56.003Z,11.63
2022-12-24T11:50:59.902Z,11.85
2022-12-24T11:54:19.895Z,11.76
2022-12-24T11:57:27.748Z,11.76
2022-12-24T12:00:30.711Z,11.86
2022-12-24T12:03:42.821Z,11.88
2022-12-24T12:07:14.818Z,11.86
2022-12-24T12:10:22.833Z,11.93
2022-12-24T12:13:33.395Z,11.94
2022-12-24T12:17:04.192Z,11.89
2022-12-24T12:20:12.749Z,11.91
2022-12-24T12:23:37.222Z,11.91
2022-12-24T12:26:43.012Z,11.90
2022-12-24T12:29:52.745Z,11.96
2022-12-24T12:33:05.673Z,12.12
2022-12-24T12:36:11.866Z,12.14
2022-12-24T12:39:14.539Z,12.13
2022-12-24T12:42:37.234Z,12.07
2022-12-24T12:46:06.390Z,12.08
2022-12-24T12:49:08.933Z,12.07
2022-12-24T12:52:46.127Z,11.96
2022-12-24T12:56:26.401Z,11.90
2022-12-24T12:59:42.892Z,11.83
2022-12-24T13:03:01.026Z,11.80
2022-12-24T13:06:09.221Z,11.78
2022-12-24T13:09:23.764Z,11.73
2022-12-24T13:12:34.922Z,11.74
2022-12-24T13:15:50.922Z,11.58
2022-12-24T13:19:02.108Z,11.45
2022-12-24T13:22:05.805Z,11.48
2022-12-24T13:25:21.858Z,11.52
2022-12-24T13:28:24.345Z,11.47
2022-12-24T13:31:28.889Z,11.46
2022-12-24T13:34:36.851Z,11.39
2022-12-24T13:37:39.141Z,11.45
2022-12-24T13:40:41.770Z,11.35
2022-12-24T13:44:03.263Z,11.24
2022-12-24T13:47:14.657Z,11.15
2022-12-24T13:50:29.689Z,11.20
2022-12-24T13:53:39.635Z,11.10
2022-12-24T13:56:42.730Z,11.10
2022-12-24T13:59:47.005Z,11.11
2022-12-24T14:02:55.392Z,11.07
2022-12-24T14:06:11.568Z,11.11
2022-12-24T14:09:18.915Z,11.06
2022-12-24T14:12:45.385Z,11.14
2022-12-24T14:15:48.967Z,11.07
2022-12-24T14:19:10.470Z,11.10
2022-12-24T14:22:30.430Z,11.12
2022-12-24T14:25:33.391Z,11.19
2022-12-24T14:28:42.165Z,11.23
2022-12-24T14:31:55.479Z,11.04
2022-12-24T14:35:08.996Z,10.88
2022-12-24T14:38:21.460Z,10.84
2022-12-24T14:41:41.053Z,10.69
2022-12-24T14:45:15.435Z,10.71
2022-12-24T14:48:37.418Z,10.57
2022-12-24T14:51:57.516Z,10.61
2022-12-24T14:54:59.965Z,10.50
2022-12-24T14:58:25.535Z,10.58
2022-12-24T15:01:31.269Z,10.43
2022-12-24T15:04:33.983Z,10.32
2022-12-24T15:07:47.130Z,10.23
2022-12-24T15:10:55.616Z,10.17
2022-12-24T15:14:00.650Z,10.11
2022-12-24T15:17:05.452Z,10.16
2022-12-24T15:20:20.374Z,10.09
2022-12-24T15:23:30.159Z,9.96
2022-12-24T15:26:36.586Z,9.98
2022-12-24T15:29:44.067Z,9.91
2022-12-24T15:32:56.717Z,9.83
2022-12-24T15:35:59.419Z,9.77
2022-12-24T15:39:08.448Z,9.81
2022-12-24T15:42:18.742Z,9.76
2022-12-24T15:45:28.130Z,9.79
2022-12-24T15:48:32.734Z,9.67
2022-12-24T15:51:40.120Z,9.68
2022-12-24T15:54:52.310Z,9.56
2022-12-24T15:57:58.173Z,9.54
2022-12-24T16:01:06.868Z,9.59
2022-12-24T16:04:22.039Z,9.60
2022-12-24T16:07:26.761Z,9.92
2022-12-24T16:10:29.993Z,9.76
2022-12-24T16:13:36.446Z,9.89
2022-12-24T16:16:42.832Z,9.83
2022-12-24T16:19:49.854Z,9.63
2022-12-24T16:22:52.497Z,9.57
2022-12-24T16:25:54.813Z,9.61
2022-12-24T16:28:57.521Z,9.73
2022-12-24T16:32:00.089Z,9.85
2022-12-24T16:35:04.892Z,9.72
2022-12-24T16:38:07.258Z,9.64
2022-12-24T16:41:09.859Z,9.55
2022-12-24T16:44:12.156Z,9.49
2022-12-24T16:47:22.200Z,9.45
2022-12-24T16:50:24.716Z,9.34
2022-12-24T16:53:27.311Z,9.38
2022-12-24T16:56:29.788Z,9.42
2022-12-24T16:59:32.739Z,9.37
2022-12-24T17:02:35.287Z,9.34
2022-12-24T17:05:39.300Z,9.28
2022-12-24T17:08:41.681Z,9.25
2022-12-24T17:11:44.291Z,9.20
2022-12-24T17:14:46.663Z,9.09
2022-12-24T17:17:49.502Z,9.05
2022-12-24T17:21:02.345Z,9.02
2022-12-24T17:24:05.306Z,9.03
2022-12-24T17:27:07.629Z,9.16
2022-12-24T17:30:11.631Z,9.28
2022-12-24T17:33:15.103Z,9.27
2022-12-24T17:36:18.868Z,9.27
2022-12-24T17:39:27.545Z,9.23
2022-12-24T17:42:30.564Z,9.20
2022-12-24T17:45:32.907Z,9.24
2022-12-24T17:48:35.581Z,9.14
2022-12-24T17:51:44.843Z,9.12
2022-12-24T17:54:48.183Z,9.19
2022-12-24T17:57:50.479Z,9.25
2022-12-24T18:00:55.171Z,9.39
2022-12-24T18:04:02.771Z,9.57
2022-12-24T18:07:05.211Z,9.62
2022-12-24T18:10:08.572Z,9.49
2022-12-24T18:13:18.906Z,9.45
2022-12-24T18:16:21.995Z,9.28
2022-12-24T18:19:24.384Z,9.30
2022-12-24T18:22:27.027Z,9.17
2022-12-24T18:25:29.383Z,9.24
2022-12-24T18:28:32.471Z,9.17
2022-12-24T18:31:35.113Z,9.06
2022-12-24T18:34:37.760Z,9.01
2022-12-24T18:37:40.213Z,8.86
2022-12-24T18:40:42.825Z,8.84
2022-12-24T18:43:45.126Z,8.79
2022-12-24T18:46:47.745Z,8.59
2022-12-24T18:49:50.180Z,8.51
2022-12-24T18:52:53.080Z,8.54
2022-12-24T18:55:55.385Z,8.46
2022-12-24T18:59:00.934Z,8.41
2022-12-24T19:02:03.702Z,8.40
2022-12-24T19:05:07.128Z,8.47
2022-12-24T19:08:37.612Z,8.47
2022-12-24T19:11:33.571Z,8.36
2022-12-24T19:14:35.907Z,8.34
2022-12-24T19:17:38.534Z,8.28
2022-12-24T19:20:41.114Z,8.30
2022-12-24T19:23:44.502Z,8.25
2022-12-24T19:26:46.871Z,8.21
2022-12-24T19:29:49.499Z,8.16
2022-12-24T19:32:51.852Z,8.12
2022-12-24T19:35:54.472Z,8.20
2022-12-24T19:38:58.012Z,8.17
2022-12-24T19:42:01.550Z,8.18
2022-12-24T19:45:04.091Z,8.22
2022-12-24T19:48:06.718Z,8.34
2022-12-24T19:51:11.355Z,8.42
2022-12-24T19:54:18.995Z,8.43
2022-12-24T19:57:21.975Z,8.50
2022-12-24T20:00:24.869Z,8.43
2022-12-24T20:03:27.543Z,8.32
2022-12-24T20:06:32.535Z,8.17
2022-12-24T20:09:35.208Z,8.20
2022-12-24T20:12:37.550Z,8.17
2022-12-24T20:15:41.748Z,8.10
2022-12-24T20:18:44.463Z,8.05
2022-12-24T20:21:47.112Z,8.07
2022-12-24T20:24:49.736Z,8.04
2022-12-24T20:27:53.090Z,7.99
2022-12-24T20:30:55.554Z,7.91
2022-12-24T20:33:59.990Z,7.90
2022-12-24T20:37:02.366Z,7.85
2022-12-24T20:40:06.639Z,7.82
2022-12-24T20:43:09.043Z,7.80
2022-12-24T20:46:12.058Z,7.83
2022-12-24T20:49:14.519Z,7.80
2022-12-24T20:52:17.257Z,7.77
2022-12-24T20:55:21.409Z,7.79
2022-12-24T20:58:24.196Z,7.75
2022-12-24T21:01:26.932Z,7.75
2022-12-24T21:04:29.741Z,7.79
2022-12-24T21:07:32.107Z,7.79
2022-12-24T21:10:35.765Z,7.73
2022-12-24T21:13:38.123Z,7.79
2022-12-24T21:16:41.295Z,7.77
2022-12-24T21:19:43.722Z,7.73
2022-12-24T21:22:46.413Z,7.72
2022-12-24T21:26:03.316Z,7.73
2022-12-24T21:29:08.092Z,7.57
2022-12-24T21:32:10.489Z,7.64
2022-12-24T21:35:13.299Z,7.69
2022-12-24T21:38:16.182Z,7.61
2022-12-24T21:41:23.541Z,7.58
2022-12-24T21:44:25.922Z,7.68
2022-12-24T21:47:28.515Z,7.62
2022-12-24T21:50:49.737Z,7.57
2022-12-24T21:54:11.355Z,7.62
2022-12-24T21:57:32.708Z,7.59
2022-12-24T22:00:35.672Z,7.55
2022-12-24T22:03:38.659Z,7.54
2022-12-24T22:06:59.656Z,7.52
2022-12-24T22:10:21.108Z,7.51
2022-12-24T22:13:24.583Z,7.53
2022-12-24T22:16:28.050Z,7.80
2022-12-24T22:19:30.621Z,7.69
2022-12-24T22:22:33.296Z,7.66
2022-12-24T22:25:36.693Z,7.59
2022-12-24T22:28:39.515Z,7.54
2022-12-24T22:31:41.832Z,7.48
2022-12-24T22:34:44.884Z,7.40
2022-12-24T22:37:47.229Z,7.40
2022-12-24T22:40:49.949Z,7.33
2022-12-24T22:43:52.298Z,7.26
2022-12-24T22:46:54.919Z,7.34
2022-12-24T22:49:57.287Z,7.34
2022-12-24T22:52:59.869Z,7.33
2022-12-24T22:56:02.701Z,7.30
2022-12-24T22:59:05.901Z,7.31
2022-12-24T23:02:08.449Z,7.31
2022-12-24T23:05:15.014Z,7.28
2022-12-24T23:08:17.381Z,7.26
2022-12-24T23:11:20.336Z,7.13
2022-12-24T23:14:41.515Z,7.15
2022-12-24T23:17:44.115Z,7.07
2022-12-24T23:20:46.547Z,7.09
2022-12-24T23:23:49.534Z,7.11
2022-12-24T23:26:51.928Z,7.17
2022-12-24T23:29:54.566Z,7.14
2022-12-24T23:32:56.957Z,7.19
2022-12-24T23:35:59.980Z,7.17
2022-12-24T23:39:02.329Z,7.22
2022-12-24T23:42:05.039Z,7.17
2022-12-24T23:45:07.826Z,7.22
2022-12-24T23:48:10.615Z,7.19
2022-12-24T23:51:19.562Z,7.09
2022-12-24T23:54:22.252Z,7.16
2022-12-24T23:57:24.632Z,7.24
